Rechercher aéroport 
image banner adimage banner adimage banner ad
image banner ad

4CL7 - Inyo County Sheriff Search&Rescue

Situé à Bishop, United States

ICAO - 4CL7, IATA -

Données fournies par Airmate  

Information générale

Coordonnées: N37°21'56" W118°22'3"
Élévation : 4120 feet MSL.
Variation magnétique : 15° East
Voir autres Aéroports à California

Données opérationnelles

Special qualification required
Heure actuelle UTC:
Heure actuelle locale:
Météo à : KBIH - Bishop ( 1 km )
METAR: KBIH 300056Z AUTO 27006KT 10SM CLR 34/06 A2999 RMK AO2 SLP102 T03440056
TAF: KBIH 292334Z 3000/3024 30012KT P6SM VCTS SCT070CB BKN120 TEMPO 3003/3007 VRB20G30KT TSRA BKN060CB FM301200 33007KT P6SM SCT100 BKN200 FM301700 16007KT P6SM SCT100 BKN200 FM302100 24012G22KT P6SM TSRA SCT060CB BKN200
Voir NOTAMs / SUP AIP / TFR affectant cet aéroport [VIEW]
Fréquences de communication: [VIEW]

Pistes:

Coordonnées de l'aéroport

Adresse: Bishop United States

Vue satellite de 4CL7